Aurora, OR

7:11 AM PST on December 05, 2016 (GMT -0800)
Rivergrove | | Change Station
Active Advisory: Winter Weather Advisory

Elev 135 ft 45.38 °N, 122.73 °W | Updated 6 seconds ago

Rain
Rain
37.0 °F
Feels Like 37.0 °F
N
0.0
Wind Variable Wind from North
Gusts 1.0 mph

Today
High -- | Low -- °F
--% Chance of Precip.
Yesterday
High -- | Low -- °F
Precip. -- in
Pressure 30.19 in
Visibility 10.0 miles
Clouds Overcast 4500 ft
Dew Point 37.0 °F
Humidity 100%
Rainfall 0.02 in
Snow Depth Not available.
7:34 AM 4:28 PM
Waxing Crescent, 32% visible
METAR KUAO 051453Z AUTO 21006KT 10SM OVC045 03/01 A3018 RMK AO2 SLP221 60000 T00330011 56014
Pressure 30.19 in
Visibility 10.0 miles
Clouds Overcast 4500 ft
Dew Point 37.0 °F
Humidity 100%
Rainfall 0.02 in
Snow Depth Not available.
7:34 AM 4:28 PM
Waxing Crescent, 32% visible
METAR KUAO 051453Z AUTO 21006KT 10SM OVC045 03/01 A3018 RMK AO2 SLP221 60000 T00330011 56014

10-Day Weather Forecast

Almanac

Astronomy

Dec. 05, 2016 Rise Set
Actual Time
Civil Twilight
Nautical Twilight
Astronomical Twilight
Moon
Length of Visible Light
Length of Day
Tomorrow will be .
, % of the Moon is Illuminated

Today's Extremes

State Highs State Lows

Community

WunderPhotos

Upload Photos

1,955,789 photos uploaded!

WunderBlog® & News

Nearby

Air Quality

  Air Quality AQ Index Pollutant
Not available.

Snow Depth

Station Depth Elevation

Earthquake Activity

City Distance Mag. Time & Date
Minimum magnitude displayed is 2.5.

Coastal Water Temperatures

Place Temperature

Stations

Nearby Weather Stations

Station Location Temp. Windchill Dew Point Humidity Wind Precip. Elev Updated Type
                   

Watches & Warnings

Winter Weather Advisory
Issued: 3:40 AM PST Dec. 5, 2016 – National Weather Service

... Winter Weather Advisory remains in effect for the central
Willamette Valley until 1 PM PST this afternoon...

A Winter Weather Advisory for snow remains in effect until 1 PM
PST this afternoon.

* Timing... snow showers will continue until early afternoon.

* Accumulation... up to 2 inches above 1000 feet. Any accumulations
below 1000 feet less than 1 inch.

* Impacts... the best chance for persistent snow will occur
during the morning commute. There is uncertainty whether snow
will stick to Road surfaces... but even falling snow may
result in travel delays or accidents. If you must drive
during this time... provide extra time for travel and
maintain space between vehicles.

Precautionary/preparedness actions...

A Winter Weather Advisory for snow means that periods of snow
will cause primarily travel difficulties. Be prepared for snow
covered roads and limited visibilities... and use caution while
driving.